sensor_id;sensor_type;location;lat;lon;timestamp;P1;durP1;ratioP1;P2;durP2;ratioP2
61373;SDS011;47242;48.158;-1.586;2024-03-06T05:30:45;0.10;;;0.10;;
61373;SDS011;47242;48.158;-1.586;2024-03-06T05:33:12;0.10;;;0.10;;
61373;SDS011;47242;48.158;-1.586;2024-03-06T05:35:38;0.10;;;0.10;;
61373;SDS011;47242;48.158;-1.586;2024-03-06T05:38:04;0.20;;;0.20;;
61373;SDS011;47242;48.158;-1.586;2024-03-06T05:40:29;0.20;;;0.20;;
61373;SDS011;47242;48.158;-1.586;2024-03-06T05:42:59;0.20;;;0.20;;
61373;SDS011;47242;48.158;-1.586;2024-03-06T05:45:25;0.10;;;0.10;;
61373;SDS011;47242;48.158;-1.586;2024-03-06T05:47:51;0.10;;;0.10;;
61373;SDS011;47242;48.158;-1.586;2024-03-06T05:50:16;0.10;;;0.10;;
61373;SDS011;47242;48.158;-1.586;2024-03-06T05:52:43;0.10;;;0.10;;
61373;SDS011;47242;48.158;-1.586;2024-03-06T05:55:09;0.17;;;0.17;;
61373;SDS011;47242;48.158;-1.586;2024-03-06T05:57:35;0.20;;;0.20;;
61373;SDS011;47242;48.158;-1.586;2024-03-06T06:00:01;0.10;;;0.10;;
61373;SDS011;47242;48.158;-1.586;2024-03-06T06:02:27;0.20;;;0.20;;
61373;SDS011;47242;48.158;-1.586;2024-03-06T06:04:52;0.17;;;0.17;;
61373;SDS011;47242;48.158;-1.586;2024-03-06T06:07:18;0.10;;;0.10;;
61373;SDS011;47242;48.158;-1.586;2024-03-06T06:09:44;0.10;;;0.10;;
61373;SDS011;47242;48.158;-1.586;2024-03-06T06:12:10;0.10;;;0.10;;
61373;SDS011;47242;48.158;-1.586;2024-03-06T06:14:35;0.10;;;0.10;;
61373;SDS011;47242;48.158;-1.586;2024-03-06T06:17:01;0.10;;;0.10;;
61373;SDS011;47242;48.158;-1.586;2024-03-06T06:19:27;0.10;;;0.10;;
61373;SDS011;47242;48.158;-1.586;2024-03-06T06:21:54;0.20;;;0.20;;
61373;SDS011;47242;48.158;-1.586;2024-03-06T06:24:19;0.10;;;0.10;;
61373;SDS011;47242;48.158;-1.586;2024-03-06T06:26:45;0.10;;;0.10;;
61373;SDS011;47242;48.158;-1.586;2024-03-06T06:29:11;0.17;;;0.17;;
61373;SDS011;47242;48.158;-1.586;2024-03-06T06:31:36;0.20;;;0.20;;
61373;SDS011;47242;48.158;-1.586;2024-03-06T06:34:02;0.17;;;0.17;;
61373;SDS011;47242;48.158;-1.586;2024-03-06T06:36:28;0.10;;;0.10;;
61373;SDS011;47242;48.158;-1.586;2024-03-06T06:38:54;0.20;;;0.20;;
61373;SDS011;47242;48.158;-1.586;2024-03-06T06:41:20;0.20;;;0.20;;
61373;SDS011;47242;48.158;-1.586;2024-03-06T06:43:45;0.10;;;0.10;;
61373;SDS011;47242;48.158;-1.586;2024-03-06T06:46:11;0.20;;;0.20;;
61373;SDS011;47242;48.158;-1.586;2024-03-06T06:48:37;0.10;;;0.10;;
61373;SDS011;47242;48.158;-1.586;2024-03-06T06:51:03;0.10;;;0.10;;
61373;SDS011;47242;48.158;-1.586;2024-03-06T06:53:31;0.20;;;0.20;;
61373;SDS011;47242;48.158;-1.586;2024-03-06T06:55:57;0.20;;;0.20;;
61373;SDS011;47242;48.158;-1.586;2024-03-06T06:58:23;0.20;;;0.20;;
61373;SDS011;47242;48.158;-1.586;2024-03-06T07:00:52;0.20;;;0.20;;
61373;SDS011;47242;48.158;-1.586;2024-03-06T07:03:17;0.20;;;0.20;;
61373;SDS011;47242;48.158;-1.586;2024-03-06T07:05:43;0.20;;;0.20;;
61373;SDS011;47242;48.158;-1.586;2024-03-06T07:08:09;0.10;;;0.10;;
61373;SDS011;47242;48.158;-1.586;2024-03-06T07:10:34;0.20;;;0.20;;
61373;SDS011;47242;48.158;-1.586;2024-03-06T07:13:01;0.10;;;0.10;;
61373;SDS011;47242;48.158;-1.586;2024-03-06T07:15:28;0.20;;;0.20;;
61373;SDS011;47242;48.158;-1.586;2024-03-06T07:17:53;0.20;;;0.20;;
61373;SDS011;47242;48.158;-1.586;2024-03-06T07:20:19;0.20;;;0.20;;
61373;SDS011;47242;48.158;-1.586;2024-03-06T07:22:45;0.10;;;0.10;;
61373;SDS011;47242;48.158;-1.586;2024-03-06T07:25:11;0.20;;;0.20;;
61373;SDS011;47242;48.158;-1.586;2024-03-06T07:27:36;0.20;;;0.20;;
61373;SDS011;47242;48.158;-1.586;2024-03-06T07:30:02;0.20;;;0.20;;
61373;SDS011;47242;48.158;-1.586;2024-03-06T07:32:28;0.20;;;0.20;;
61373;SDS011;47242;48.158;-1.586;2024-03-06T07:34:53;0.20;;;0.20;;
61373;SDS011;47242;48.158;-1.586;2024-03-06T07:37:19;0.20;;;0.20;;
61373;SDS011;47242;48.158;-1.586;2024-03-06T07:39:46;0.30;;;0.30;;
61373;SDS011;47242;48.158;-1.586;2024-03-06T07:42:12;0.30;;;0.30;;
61373;SDS011;47242;48.158;-1.586;2024-03-06T07:44:37;0.30;;;0.30;;
61373;SDS011;47242;48.158;-1.586;2024-03-06T07:47:03;0.50;;;0.50;;
61373;SDS011;47242;48.158;-1.586;2024-03-06T07:49:29;0.50;;;0.50;;
61373;SDS011;47242;48.158;-1.586;2024-03-06T07:51:56;0.40;;;0.40;;
61373;SDS011;47242;48.158;-1.586;2024-03-06T07:54:23;0.40;;;0.40;;
61373;SDS011;47242;48.158;-1.586;2024-03-06T07:56:48;0.40;;;0.40;;
61373;SDS011;47242;48.158;-1.586;2024-03-06T07:59:14;0.40;;;0.40;;
61373;SDS011;47242;48.158;-1.586;2024-03-06T08:01:41;0.40;;;0.40;;
61373;SDS011;47242;48.158;-1.586;2024-03-06T08:04:07;0.20;;;0.20;;
61373;SDS011;47242;48.158;-1.586;2024-03-06T08:06:32;0.40;;;0.40;;
61373;SDS011;47242;48.158;-1.586;2024-03-06T08:08:58;0.50;;;0.50;;
61373;SDS011;47242;48.158;-1.586;2024-03-06T08:11:24;0.30;;;0.30;;
61373;SDS011;47242;48.158;-1.586;2024-03-06T08:13:56;0.50;;;0.50;;
61373;SDS011;47242;48.158;-1.586;2024-03-06T08:16:22;0.40;;;0.40;;
61373;SDS011;47242;48.158;-1.586;2024-03-06T08:18:48;0.30;;;0.30;;
61373;SDS011;47242;48.158;-1.586;2024-03-06T08:21:14;0.50;;;0.50;;
61373;SDS011;47242;48.158;-1.586;2024-03-06T08:23:39;0.30;;;0.30;;
61373;SDS011;47242;48.158;-1.586;2024-03-06T08:26:05;0.47;;;0.47;;
61373;SDS011;47242;48.158;-1.586;2024-03-06T08:28:31;0.80;;;0.80;;
61373;SDS011;47242;48.158;-1.586;2024-03-06T08:30:56;0.30;;;0.30;;
61373;SDS011;47242;48.158;-1.586;2024-03-06T08:33:22;0.30;;;0.30;;
61373;SDS011;47242;48.158;-1.586;2024-03-06T08:35:48;0.20;;;0.20;;
61373;SDS011;47242;48.158;-1.586;2024-03-06T08:38:13;0.30;;;0.30;;
61373;SDS011;47242;48.158;-1.586;2024-03-06T08:40:39;0.40;;;0.40;;
61373;SDS011;47242;48.158;-1.586;2024-03-06T08:43:06;0.60;;;0.60;;
61373;SDS011;47242;48.158;-1.586;2024-03-06T08:45:34;0.50;;;0.50;;
61373;SDS011;47242;48.158;-1.586;2024-03-06T08:47:59;0.50;;;0.50;;
61373;SDS011;47242;48.158;-1.586;2024-03-06T08:50:25;0.80;;;0.80;;
61373;SDS011;47242;48.158;-1.586;2024-03-06T08:52:51;0.80;;;0.80;;
61373;SDS011;47242;48.158;-1.586;2024-03-06T08:55:16;1.15;;;1.15;;
61373;SDS011;47242;48.158;-1.586;2024-03-06T08:57:42;0.50;;;0.50;;
61373;SDS011;47242;48.158;-1.586;2024-03-06T09:00:08;0.50;;;0.50;;
61373;SDS011;47242;48.158;-1.586;2024-03-06T09:02:35;1.10;;;1.10;;
61373;SDS011;47242;48.158;-1.586;2024-03-06T09:05:01;0.40;;;0.40;;
61373;SDS011;47242;48.158;-1.586;2024-03-06T09:07:29;0.40;;;0.40;;
61373;SDS011;47242;48.158;-1.586;2024-03-06T09:09:55;0.30;;;0.30;;
61373;SDS011;47242;48.158;-1.586;2024-03-06T09:12:22;0.80;;;0.80;;
61373;SDS011;47242;48.158;-1.586;2024-03-06T09:14:47;1.00;;;1.00;;
61373;SDS011;47242;48.158;-1.586;2024-03-06T09:17:13;0.40;;;0.40;;
61373;SDS011;47242;48.158;-1.586;2024-03-06T09:19:39;1.00;;;1.00;;
61373;SDS011;47242;48.158;-1.586;2024-03-06T09:22:06;0.40;;;0.40;;
61373;SDS011;47242;48.158;-1.586;2024-03-06T09:24:32;0.40;;;0.40;;
61373;SDS011;47242;48.158;-1.586;2024-03-06T09:26:58;0.20;;;0.20;;
61373;SDS011;47242;48.158;-1.586;2024-03-06T09:29:23;0.40;;;0.40;;
61373;SDS011;47242;48.158;-1.586;2024-03-06T09:31:49;0.80;;;0.80;;
61373;SDS011;47242;48.158;-1.586;2024-03-06T09:34:15;1.40;;;1.30;;
61373;SDS011;47242;48.158;-1.586;2024-03-06T09:36:41;1.60;;;1.50;;
61373;SDS011;47242;48.158;-1.586;2024-03-06T09:39:11;2.22;;;2.13;;
61373;SDS011;47242;48.158;-1.586;2024-03-06T09:41:40;1.70;;;1.60;;
61373;SDS011;47242;48.158;-1.586;2024-03-06T09:44:06;2.47;;;2.28;;
61373;SDS011;47242;48.158;-1.586;2024-03-06T09:46:32;3.08;;;2.88;;
61373;SDS011;47242;48.158;-1.586;2024-03-06T09:49:00;3.10;;;2.90;;
61373;SDS011;47242;48.158;-1.586;2024-03-06T09:51:26;3.25;;;3.05;;
61373;SDS011;47242;48.158;-1.586;2024-03-06T09:53:53;3.00;;;2.80;;
61373;SDS011;47242;48.158;-1.586;2024-03-06T09:56:19;3.15;;;2.95;;
61373;SDS011;47242;48.158;-1.586;2024-03-06T09:58:45;3.00;;;2.80;;
61373;SDS011;47242;48.158;-1.586;2024-03-06T10:01:14;3.00;;;2.80;;
61373;SDS011;47242;48.158;-1.586;2024-03-06T10:03:42;3.25;;;3.05;;
61373;SDS011;47242;48.158;-1.586;2024-03-06T10:06:08;3.00;;;2.80;;
61373;SDS011;47242;48.158;-1.586;2024-03-06T10:08:35;2.88;;;2.67;;
61373;SDS011;47242;48.158;-1.586;2024-03-06T10:11:03;2.60;;;2.40;;
61373;SDS011;47242;48.158;-1.586;2024-03-06T10:13:29;2.60;;;2.40;;
61373;SDS011;47242;48.158;-1.586;2024-03-06T10:16:02;2.50;;;2.30;;
61373;SDS011;47242;48.158;-1.586;2024-03-06T10:18:30;2.10;;;2.00;;
61373;SDS011;47242;48.158;-1.586;2024-03-06T10:20:57;0.10;;;0.10;;
61373;SDS011;47242;48.158;-1.586;2024-03-06T10:23:23;0.10;;;0.10;;
61373;SDS011;47242;48.158;-1.586;2024-03-06T10:25:50;0.10;;;0.10;;
61373;SDS011;47242;48.158;-1.586;2024-03-06T10:28:17;0.10;;;0.10;;
61373;SDS011;47242;48.158;-1.586;2024-03-06T10:30:44;0.10;;;0.10;;
61373;SDS011;47242;48.158;-1.586;2024-03-06T10:33:11;0.10;;;0.10;;
61373;SDS011;47242;48.158;-1.586;2024-03-06T10:35:39;0.10;;;0.10;;
61373;SDS011;47242;48.158;-1.586;2024-03-06T10:38:07;0.10;;;0.10;;
61373;SDS011;47242;48.158;-1.586;2024-03-06T10:40:37;0.10;;;0.10;;
61373;SDS011;47242;48.158;-1.586;2024-03-06T10:43:04;0.10;;;0.10;;
61373;SDS011;47242;48.158;-1.586;2024-03-06T10:45:34;0.10;;;0.10;;
61373;SDS011;47242;48.158;-1.586;2024-03-06T10:48:13;0.10;;;0.10;;
61373;SDS011;47242;48.158;-1.586;2024-03-06T10:50:39;0.10;;;0.10;;
61373;SDS011;47242;48.158;-1.586;2024-03-06T10:53:08;0.10;;;0.10;;
61373;SDS011;47242;48.158;-1.586;2024-03-06T10:55:35;0.10;;;0.10;;
61373;SDS011;47242;48.158;-1.586;2024-03-06T10:58:02;0.10;;;0.10;;
61373;SDS011;47242;48.158;-1.586;2024-03-06T11:00:33;0.10;;;0.10;;
61373;SDS011;47242;48.158;-1.586;2024-03-06T11:03:01;0.10;;;0.10;;
61373;SDS011;47242;48.158;-1.586;2024-03-06T11:05:32;0.10;;;0.10;;
61373;SDS011;47242;48.158;-1.586;2024-03-06T11:08:00;0.10;;;0.10;;
61373;SDS011;47242;48.158;-1.586;2024-03-06T11:10:31;0.10;;;0.10;;
61373;SDS011;47242;48.158;-1.586;2024-03-06T11:12:58;0.10;;;0.10;;
61373;SDS011;47242;48.158;-1.586;2024-03-06T11:15:25;0.10;;;0.10;;
61373;SDS011;47242;48.158;-1.586;2024-03-06T11:17:51;0.10;;;0.10;;
61373;SDS011;47242;48.158;-1.586;2024-03-06T11:20:19;0.10;;;0.10;;
61373;SDS011;47242;48.158;-1.586;2024-03-06T11:28:17;0.10;;;0.10;;
61373;SDS011;47242;48.158;-1.586;2024-03-06T11:33:19;0.10;;;0.10;;
61373;SDS011;47242;48.158;-1.586;2024-03-06T11:38:40;0.10;;;0.10;;
61373;SDS011;47242;48.158;-1.586;2024-03-06T11:41:06;0.10;;;0.10;;
61373;SDS011;47242;48.158;-1.586;2024-03-06T11:43:32;0.10;;;0.10;;
61373;SDS011;47242;48.158;-1.586;2024-03-06T11:46:08;0.10;;;0.10;;
61373;SDS011;47242;48.158;-1.586;2024-03-06T11:48:37;0.10;;;0.10;;
61373;SDS011;47242;48.158;-1.586;2024-03-06T11:51:03;0.10;;;0.10;;
61373;SDS011;47242;48.158;-1.586;2024-03-06T11:53:33;0.10;;;0.10;;
61373;SDS011;47242;48.158;-1.586;2024-03-06T11:56:00;0.10;;;0.10;;
61373;SDS011;47242;48.158;-1.586;2024-03-06T11:58:25;0.10;;;0.10;;
61373;SDS011;47242;48.158;-1.586;2024-03-06T12:00:51;0.10;;;0.10;;
61373;SDS011;47242;48.158;-1.586;2024-03-06T12:03:19;0.20;;;0.20;;
61373;SDS011;47242;48.158;-1.586;2024-03-06T12:05:49;0.10;;;0.10;;
61373;SDS011;47242;48.158;-1.586;2024-03-06T12:08:16;0.10;;;0.10;;
61373;SDS011;47242;48.158;-1.586;2024-03-06T12:10:41;0.10;;;0.10;;
61373;SDS011;47242;48.158;-1.586;2024-03-06T12:13:07;0.10;;;0.10;;
61373;SDS011;47242;48.158;-1.586;2024-03-06T12:15:33;0.10;;;0.10;;
61373;SDS011;47242;48.158;-1.586;2024-03-06T12:18:00;0.10;;;0.10;;
61373;SDS011;47242;48.158;-1.586;2024-03-06T12:20:26;0.10;;;0.10;;
61373;SDS011;47242;48.158;-1.586;2024-03-06T12:22:52;0.10;;;0.10;;
61373;SDS011;47242;48.158;-1.586;2024-03-06T12:25:20;0.10;;;0.10;;
61373;SDS011;47242;48.158;-1.586;2024-03-06T12:27:47;0.10;;;0.10;;
61373;SDS011;47242;48.158;-1.586;2024-03-06T12:30:17;0.20;;;0.20;;
61373;SDS011;47242;48.158;-1.586;2024-03-06T12:32:44;0.10;;;0.10;;
61373;SDS011;47242;48.158;-1.586;2024-03-06T12:35:10;0.20;;;0.20;;
61373;SDS011;47242;48.158;-1.586;2024-03-06T12:37:36;0.10;;;0.10;;
61373;SDS011;47242;48.158;-1.586;2024-03-06T12:40:02;0.10;;;0.10;;
61373;SDS011;47242;48.158;-1.586;2024-03-06T12:42:38;0.10;;;0.10;;
61373;SDS011;47242;48.158;-1.586;2024-03-06T12:45:04;0.10;;;0.10;;
61373;SDS011;47242;48.158;-1.586;2024-03-06T12:47:30;0.10;;;0.10;;
61373;SDS011;47242;48.158;-1.586;2024-03-06T12:49:56;0.10;;;0.10;;
61373;SDS011;47242;48.158;-1.586;2024-03-06T12:52:21;0.10;;;0.10;;
61373;SDS011;47242;48.158;-1.586;2024-03-06T12:54:47;0.10;;;0.10;;
61373;SDS011;47242;48.158;-1.586;2024-03-06T12:57:12;0.10;;;0.10;;
61373;SDS011;47242;48.158;-1.586;2024-03-06T12:59:38;0.10;;;0.10;;
61373;SDS011;47242;48.158;-1.586;2024-03-06T13:02:04;0.13;;;0.13;;
61373;SDS011;47242;48.158;-1.586;2024-03-06T13:04:29;0.10;;;0.10;;
61373;SDS011;47242;48.158;-1.586;2024-03-06T13:06:55;0.20;;;0.20;;
61373;SDS011;47242;48.158;-1.586;2024-03-06T13:09:20;0.10;;;0.10;;
61373;SDS011;47242;48.158;-1.586;2024-03-06T13:11:48;0.20;;;0.20;;
61373;SDS011;47242;48.158;-1.586;2024-03-06T13:14:13;0.20;;;0.20;;
61373;SDS011;47242;48.158;-1.586;2024-03-06T13:16:39;0.10;;;0.10;;
61373;SDS011;47242;48.158;-1.586;2024-03-06T13:19:05;0.10;;;0.10;;
61373;SDS011;47242;48.158;-1.586;2024-03-06T13:21:30;0.10;;;0.10;;
61373;SDS011;47242;48.158;-1.586;2024-03-06T13:23:56;0.10;;;0.10;;
61373;SDS011;47242;48.158;-1.586;2024-03-06T13:26:21;0.10;;;0.10;;
61373;SDS011;47242;48.158;-1.586;2024-03-06T13:28:47;0.10;;;0.10;;
61373;SDS011;47242;48.158;-1.586;2024-03-06T13:31:13;0.10;;;0.10;;
61373;SDS011;47242;48.158;-1.586;2024-03-06T13:33:38;0.10;;;0.10;;
61373;SDS011;47242;48.158;-1.586;2024-03-06T13:36:04;0.10;;;0.10;;
61373;SDS011;47242;48.158;-1.586;2024-03-06T13:38:31;0.10;;;0.10;;
61373;SDS011;47242;48.158;-1.586;2024-03-06T13:40:57;0.10;;;0.10;;
61373;SDS011;47242;48.158;-1.586;2024-03-06T13:43:23;0.10;;;0.10;;
61373;SDS011;47242;48.158;-1.586;2024-03-06T13:45:49;0.10;;;0.10;;
61373;SDS011;47242;48.158;-1.586;2024-03-06T13:48:15;0.10;;;0.10;;
61373;SDS011;47242;48.158;-1.586;2024-03-06T13:50:44;0.10;;;0.10;;
61373;SDS011;47242;48.158;-1.586;2024-03-06T13:53:23;0.10;;;0.10;;
61373;SDS011;47242;48.158;-1.586;2024-03-06T13:55:48;0.10;;;0.10;;
61373;SDS011;47242;48.158;-1.586;2024-03-06T13:58:14;0.10;;;0.10;;
61373;SDS011;47242;48.158;-1.586;2024-03-06T14:00:41;0.10;;;0.10;;
61373;SDS011;47242;48.158;-1.586;2024-03-06T14:03:06;0.10;;;0.10;;
61373;SDS011;47242;48.158;-1.586;2024-03-06T14:05:33;0.10;;;0.10;;
61373;SDS011;47242;48.158;-1.586;2024-03-06T14:07:59;0.10;;;0.10;;
61373;SDS011;47242;48.158;-1.586;2024-03-06T14:10:24;0.10;;;0.10;;
61373;SDS011;47242;48.158;-1.586;2024-03-06T14:12:51;0.10;;;0.10;;
61373;SDS011;47242;48.158;-1.586;2024-03-06T14:15:20;0.10;;;0.10;;
61373;SDS011;47242;48.158;-1.586;2024-03-06T14:17:47;0.10;;;0.10;;
61373;SDS011;47242;48.158;-1.586;2024-03-06T14:20:13;0.10;;;0.10;;
61373;SDS011;47242;48.158;-1.586;2024-03-06T14:22:40;0.10;;;0.10;;
61373;SDS011;47242;48.158;-1.586;2024-03-06T14:25:06;0.10;;;0.10;;
61373;SDS011;47242;48.158;-1.586;2024-03-06T14:27:33;0.10;;;0.10;;
61373;SDS011;47242;48.158;-1.586;2024-03-06T14:30:00;0.10;;;0.10;;
61373;SDS011;47242;48.158;-1.586;2024-03-06T14:32:27;0.10;;;0.10;;
61373;SDS011;47242;48.158;-1.586;2024-03-06T14:34:53;0.10;;;0.10;;
61373;SDS011;47242;48.158;-1.586;2024-03-06T14:37:18;0.10;;;0.10;;
61373;SDS011;47242;48.158;-1.586;2024-03-06T14:39:44;0.10;;;0.10;;
61373;SDS011;47242;48.158;-1.586;2024-03-06T14:42:10;0.10;;;0.10;;
61373;SDS011;47242;48.158;-1.586;2024-03-06T14:44:37;0.10;;;0.10;;
61373;SDS011;47242;48.158;-1.586;2024-03-06T14:47:03;0.10;;;0.10;;
61373;SDS011;47242;48.158;-1.586;2024-03-06T14:49:30;0.10;;;0.10;;
61373;SDS011;47242;48.158;-1.586;2024-03-06T14:51:56;0.10;;;0.10;;
61373;SDS011;47242;48.158;-1.586;2024-03-06T14:54:21;0.10;;;0.10;;
61373;SDS011;47242;48.158;-1.586;2024-03-06T14:56:50;0.10;;;0.10;;
61373;SDS011;47242;48.158;-1.586;2024-03-06T14:59:20;0.10;;;0.10;;
61373;SDS011;47242;48.158;-1.586;2024-03-06T15:01:46;0.10;;;0.10;;
61373;SDS011;47242;48.158;-1.586;2024-03-06T15:04:13;0.10;;;0.10;;
61373;SDS011;47242;48.158;-1.586;2024-03-06T15:06:39;0.10;;;0.10;;
61373;SDS011;47242;48.158;-1.586;2024-03-06T15:09:05;0.10;;;0.10;;
61373;SDS011;47242;48.158;-1.586;2024-03-06T15:11:31;0.10;;;0.10;;
61373;SDS011;47242;48.158;-1.586;2024-03-06T15:13:59;0.10;;;0.10;;
61373;SDS011;47242;48.158;-1.586;2024-03-06T15:16:25;0.10;;;0.10;;
61373;SDS011;47242;48.158;-1.586;2024-03-06T15:18:50;0.10;;;0.10;;
61373;SDS011;47242;48.158;-1.586;2024-03-06T15:21:18;0.10;;;0.10;;
61373;SDS011;47242;48.158;-1.586;2024-03-06T15:23:44;0.10;;;0.10;;
61373;SDS011;47242;48.158;-1.586;2024-03-06T15:26:10;0.10;;;0.10;;
61373;SDS011;47242;48.158;-1.586;2024-03-06T15:28:36;0.10;;;0.10;;
61373;SDS011;47242;48.158;-1.586;2024-03-06T15:31:01;0.10;;;0.10;;
61373;SDS011;47242;48.158;-1.586;2024-03-06T15:33:30;0.10;;;0.10;;
61373;SDS011;47242;48.158;-1.586;2024-03-06T15:35:56;0.10;;;0.10;;
61373;SDS011;47242;48.158;-1.586;2024-03-06T15:38:23;0.10;;;0.10;;
61373;SDS011;47242;48.158;-1.586;2024-03-06T15:40:49;0.10;;;0.10;;
61373;SDS011;47242;48.158;-1.586;2024-03-06T15:43:16;0.10;;;0.10;;
61373;SDS011;47242;48.158;-1.586;2024-03-06T15:45:42;0.10;;;0.10;;
61373;SDS011;47242;48.158;-1.586;2024-03-06T15:48:08;0.10;;;0.10;;
61373;SDS011;47242;48.158;-1.586;2024-03-06T15:50:38;0.10;;;0.10;;
61373;SDS011;47242;48.158;-1.586;2024-03-06T15:53:13;0.10;;;0.10;;
61373;SDS011;47242;48.158;-1.586;2024-03-06T15:55:39;0.10;;;0.10;;
61373;SDS011;47242;48.158;-1.586;2024-03-06T15:58:05;0.10;;;0.10;;
61373;SDS011;47242;48.158;-1.586;2024-03-06T16:00:31;0.10;;;0.10;;
61373;SDS011;47242;48.158;-1.586;2024-03-06T16:02:57;0.00;;;0.00;;
61373;SDS011;47242;48.158;-1.586;2024-03-06T16:05:23;0.10;;;0.10;;
61373;SDS011;47242;48.158;-1.586;2024-03-06T16:07:51;0.10;;;0.10;;
61373;SDS011;47242;48.158;-1.586;2024-03-06T16:10:21;0.10;;;0.10;;
61373;SDS011;47242;48.158;-1.586;2024-03-06T16:12:46;0.10;;;0.10;;
61373;SDS011;47242;48.158;-1.586;2024-03-06T16:15:12;0.10;;;0.10;;
61373;SDS011;47242;48.158;-1.586;2024-03-06T16:17:38;0.10;;;0.10;;
61373;SDS011;47242;48.158;-1.586;2024-03-06T16:20:03;0.10;;;0.10;;
61373;SDS011;47242;48.158;-1.586;2024-03-06T16:22:30;0.10;;;0.10;;
61373;SDS011;47242;48.158;-1.586;2024-03-06T16:24:57;0.10;;;0.10;;
61373;SDS011;47242;48.158;-1.586;2024-03-06T16:27:22;0.10;;;0.10;;
61373;SDS011;47242;48.158;-1.586;2024-03-06T16:29:48;0.10;;;0.10;;
61373;SDS011;47242;48.158;-1.586;2024-03-06T16:32:13;0.10;;;0.10;;
61373;SDS011;47242;48.158;-1.586;2024-03-06T16:34:39;0.10;;;0.10;;
61373;SDS011;47242;48.158;-1.586;2024-03-06T16:37:05;0.10;;;0.10;;
61373;SDS011;47242;48.158;-1.586;2024-03-06T16:39:30;0.10;;;0.10;;
61373;SDS011;47242;48.158;-1.586;2024-03-06T16:41:56;0.10;;;0.10;;
61373;SDS011;47242;48.158;-1.586;2024-03-06T16:44:22;0.10;;;0.10;;
61373;SDS011;47242;48.158;-1.586;2024-03-06T16:46:48;0.10;;;0.10;;
61373;SDS011;47242;48.158;-1.586;2024-03-06T16:49:14;0.10;;;0.10;;
61373;SDS011;47242;48.158;-1.586;2024-03-06T16:51:42;0.10;;;0.10;;
61373;SDS011;47242;48.158;-1.586;2024-03-06T16:54:08;0.10;;;0.10;;
61373;SDS011;47242;48.158;-1.586;2024-03-06T16:56:34;0.10;;;0.10;;
61373;SDS011;47242;48.158;-1.586;2024-03-06T16:58:59;0.10;;;0.10;;
61373;SDS011;47242;48.158;-1.586;2024-03-06T17:01:25;0.10;;;0.10;;
61373;SDS011;47242;48.158;-1.586;2024-03-06T17:03:51;0.10;;;0.10;;
61373;SDS011;47242;48.158;-1.586;2024-03-06T17:06:16;0.10;;;0.10;;
61373;SDS011;47242;48.158;-1.586;2024-03-06T17:08:42;0.10;;;0.10;;
61373;SDS011;47242;48.158;-1.586;2024-03-06T17:11:09;0.10;;;0.10;;
61373;SDS011;47242;48.158;-1.586;2024-03-06T17:13:36;0.10;;;0.10;;
61373;SDS011;47242;48.158;-1.586;2024-03-06T17:16:07;0.10;;;0.10;;
61373;SDS011;47242;48.158;-1.586;2024-03-06T17:18:34;0.10;;;0.10;;
61373;SDS011;47242;48.158;-1.586;2024-03-06T17:21:01;0.10;;;0.10;;
61373;SDS011;47242;48.158;-1.586;2024-03-06T17:23:30;0.10;;;0.10;;
61373;SDS011;47242;48.158;-1.586;2024-03-06T17:25:57;0.10;;;0.10;;
61373;SDS011;47242;48.158;-1.586;2024-03-06T17:28:22;0.10;;;0.10;;
61373;SDS011;47242;48.158;-1.586;2024-03-06T17:30:49;0.10;;;0.10;;
61373;SDS011;47242;48.158;-1.586;2024-03-06T17:33:16;0.10;;;0.10;;
61373;SDS011;47242;48.158;-1.586;2024-03-06T17:35:42;0.10;;;0.10;;
61373;SDS011;47242;48.158;-1.586;2024-03-06T17:38:09;0.10;;;0.10;;
61373;SDS011;47242;48.158;-1.586;2024-03-06T17:40:36;0.10;;;0.10;;
61373;SDS011;47242;48.158;-1.586;2024-03-06T17:43:02;0.10;;;0.10;;
61373;SDS011;47242;48.158;-1.586;2024-03-06T17:45:28;0.10;;;0.10;;
61373;SDS011;47242;48.158;-1.586;2024-03-06T17:47:55;0.10;;;0.10;;
61373;SDS011;47242;48.158;-1.586;2024-03-06T17:50:21;0.00;;;0.00;;
61373;SDS011;47242;48.158;-1.586;2024-03-06T17:52:47;0.10;;;0.10;;
61373;SDS011;47242;48.158;-1.586;2024-03-06T17:55:12;0.10;;;0.10;;
61373;SDS011;47242;48.158;-1.586;2024-03-06T17:57:38;0.10;;;0.10;;
61373;SDS011;47242;48.158;-1.586;2024-03-06T18:00:13;0.10;;;0.10;;
61373;SDS011;47242;48.158;-1.586;2024-03-06T18:02:40;0.10;;;0.10;;
61373;SDS011;47242;48.158;-1.586;2024-03-06T18:05:06;0.10;;;0.10;;
61373;SDS011;47242;48.158;-1.586;2024-03-06T18:07:32;0.10;;;0.10;;
61373;SDS011;47242;48.158;-1.586;2024-03-06T18:09:58;0.10;;;0.10;;
61373;SDS011;47242;48.158;-1.586;2024-03-06T18:12:24;0.10;;;0.10;;
61373;SDS011;47242;48.158;-1.586;2024-03-06T18:14:54;0.10;;;0.10;;
61373;SDS011;47242;48.158;-1.586;2024-03-06T18:17:21;0.10;;;0.10;;
61373;SDS011;47242;48.158;-1.586;2024-03-06T18:19:49;0.08;;;0.08;;
61373;SDS011;47242;48.158;-1.586;2024-03-06T18:22:18;0.10;;;0.10;;
61373;SDS011;47242;48.158;-1.586;2024-03-06T18:24:44;0.10;;;0.10;;
61373;SDS011;47242;48.158;-1.586;2024-03-06T18:27:11;0.10;;;0.10;;
61373;SDS011;47242;48.158;-1.586;2024-03-06T18:29:36;0.10;;;0.10;;
61373;SDS011;47242;48.158;-1.586;2024-03-06T18:32:02;0.10;;;0.10;;
61373;SDS011;47242;48.158;-1.586;2024-03-06T18:34:29;0.10;;;0.10;;
61373;SDS011;47242;48.158;-1.586;2024-03-06T18:37:00;0.10;;;0.10;;
61373;SDS011;47242;48.158;-1.586;2024-03-06T18:39:26;0.10;;;0.10;;
61373;SDS011;47242;48.158;-1.586;2024-03-06T18:41:51;0.10;;;0.10;;
61373;SDS011;47242;48.158;-1.586;2024-03-06T18:44:17;0.10;;;0.10;;
61373;SDS011;47242;48.158;-1.586;2024-03-06T18:46:43;0.10;;;0.10;;
61373;SDS011;47242;48.158;-1.586;2024-03-06T18:49:08;0.10;;;0.10;;
61373;SDS011;47242;48.158;-1.586;2024-03-06T18:51:36;0.10;;;0.10;;
61373;SDS011;47242;48.158;-1.586;2024-03-06T18:54:02;0.10;;;0.10;;
61373;SDS011;47242;48.158;-1.586;2024-03-06T18:56:29;0.10;;;0.10;;
61373;SDS011;47242;48.158;-1.586;2024-03-06T18:58:55;0.10;;;0.10;;
61373;SDS011;47242;48.158;-1.586;2024-03-06T19:01:20;0.10;;;0.10;;
61373;SDS011;47242;48.158;-1.586;2024-03-06T19:03:47;0.10;;;0.10;;
61373;SDS011;47242;48.158;-1.586;2024-03-06T19:06:13;0.10;;;0.10;;
61373;SDS011;47242;48.158;-1.586;2024-03-06T19:08:39;0.10;;;0.10;;
61373;SDS011;47242;48.158;-1.586;2024-03-06T19:11:05;0.10;;;0.10;;
61373;SDS011;47242;48.158;-1.586;2024-03-06T19:13:39;0.10;;;0.10;;
61373;SDS011;47242;48.158;-1.586;2024-03-06T19:18:37;0.10;;;0.10;;
61373;SDS011;47242;48.158;-1.586;2024-03-06T19:21:03;0.10;;;0.10;;
61373;SDS011;47242;48.158;-1.586;2024-03-06T19:23:29;0.10;;;0.10;;
61373;SDS011;47242;48.158;-1.586;2024-03-06T19:25:55;0.10;;;0.10;;
61373;SDS011;47242;48.158;-1.586;2024-03-06T19:28:21;0.10;;;0.10;;
61373;SDS011;47242;48.158;-1.586;2024-03-06T19:30:48;0.10;;;0.10;;
61373;SDS011;47242;48.158;-1.586;2024-03-06T19:33:13;0.10;;;0.10;;
61373;SDS011;47242;48.158;-1.586;2024-03-06T19:35:39;0.10;;;0.10;;
61373;SDS011;47242;48.158;-1.586;2024-03-06T19:38:05;0.10;;;0.10;;
61373;SDS011;47242;48.158;-1.586;2024-03-06T19:40:31;0.10;;;0.10;;
61373;SDS011;47242;48.158;-1.586;2024-03-06T19:42:58;0.10;;;0.10;;
61373;SDS011;47242;48.158;-1.586;2024-03-06T19:45:24;0.10;;;0.10;;
61373;SDS011;47242;48.158;-1.586;2024-03-06T19:47:50;0.10;;;0.10;;
61373;SDS011;47242;48.158;-1.586;2024-03-06T19:50:15;0.10;;;0.10;;
61373;SDS011;47242;48.158;-1.586;2024-03-06T19:52:41;0.10;;;0.10;;
61373;SDS011;47242;48.158;-1.586;2024-03-06T19:55:09;0.10;;;0.10;;
61373;SDS011;47242;48.158;-1.586;2024-03-06T19:57:35;0.10;;;0.10;;
61373;SDS011;47242;48.158;-1.586;2024-03-06T20:00:01;0.10;;;0.10;;
61373;SDS011;47242;48.158;-1.586;2024-03-06T20:02:35;0.10;;;0.10;;
61373;SDS011;47242;48.158;-1.586;2024-03-06T20:05:00;0.10;;;0.10;;
61373;SDS011;47242;48.158;-1.586;2024-03-06T20:07:27;0.10;;;0.10;;
61373;SDS011;47242;48.158;-1.586;2024-03-06T20:09:52;0.10;;;0.10;;
61373;SDS011;47242;48.158;-1.586;2024-03-06T20:12:18;0.10;;;0.10;;